Ayer, Massachusetts
Current Conditions -  °F | °C
As of 10:52 PM on Sunday 25 Jan 2015 (Local Time) from KFIT Reporting Station
Clear Clear  
Wind Chill: 11°   Ceiling: Unl
Heat Index: 18°   Visibility: 10mi
Dew Point:   Wind: 5mph
Humidity: 48%   Direction: 360°N
Pressure: 30.01"   Gusts: NA
Location:  42.56°N, 71.58°W
Report Text: KFIT 260352Z AUTO 36004KT 10SM CLR M08/M17 A3001 RMK AO2 SLP169 T10781172
Loading
Personal Weather Stations






























Interactive Weather Map New forecast layout! Learn more

10-Day Weather Forecast

Advertisements
Track Severe Weather on mobile